Aeroporto :
LOGIN :

Iscrizione | Disclaimer

   EN    FR    IT 

 










Sommario :    VFR   VFR Marginale   IFR   IFR Intensivo   IFR Molto Intensivo
Visibilità : 
Base nubi : 
>= 8 km
>= 3000ft
5 / 8 km
1000 / 3000 ft
1500m / 5 km
500 / 1000 ft
800 / 1500m
200 / 500 ft
< 800m
< 200 ft
Simboli :   Temporali  Nebbia  Neve Forte  Precipitazioni Forti  Vento > 20 kt
SIGMETs :   Varie  Temporali  Ghiacco  Turbolenza  Onda orograficha  Ceneri Vulcaniche






- Altitudine del aeroporto : 36 ft


EGXV - RAF Leconfield

ULTIMO METAR :
  • 020720Z AUTO 11004KT 9000 -RA OVC014/// 03/03 Q0992

METARs OBSOLETI :
  • 020650Z AUTO 09003KT 9999 FEW008/// OVC028/// 02/02 Q0991
  • 020620Z AUTO 08003KT 5000 BR SCT009/// SCT039/// 01/01 Q0991
  • 020550Z AUTO 08003KT 9999 FEW110/// 02/01 Q0991
  • 020520Z AUTO 09002KT 9999 BR FEW013/// BKN018/// 02/02 Q0991
  • 020450Z AUTO 13001KT 6000 BR SCT008/// OVC024/// 02/01 Q0991
  • 020420Z AUTO 13001KT 2400 BR BKN009/// BKN025/// 02/01 Q0991
  • 012050Z AUTO 14004KT 9999 NCD 02/01 Q0991
  • 020350Z AUTO 31001KT 8000 BR OVC010/// 02/02 Q0991
  • 020250Z AUTO 34002KT 6000 // OVC012/// 02/02 Q0991

TAF N/A



MetMap, La meteo Aeronautica in un colpo d'occhio ! - Copyright ORBIFLY Dicembre 2007 - Disclaimer

ORBIFLY MET'MAP TEAM :

Programmazione e sviluppo : Alexandra Zaïnal
Concezione : Baudouin d'Aumeries
Supporto tecnico e logistico : Manuel Goepfert
Aiuto : Marc-Olivier Méhu
Aiuto per la traduzione : Arnaldo La Scala




FONTI E CREDITI :

   NOAA